sensor_id;sensor_type;location;lat;lon;timestamp;P1;durP1;ratioP1;P2;durP2;ratioP2
38725;SDS011;24474;48.906;8.808;2022-10-17T00:00:20;2.92;;;1.40;;
38725;SDS011;24474;48.906;8.808;2022-10-17T00:02:45;6.05;;;1.63;;
38725;SDS011;24474;48.906;8.808;2022-10-17T00:05:11;5.30;;;1.52;;
38725;SDS011;24474;48.906;8.808;2022-10-17T00:07:37;5.18;;;1.83;;
38725;SDS011;24474;48.906;8.808;2022-10-17T00:10:03;3.30;;;1.55;;
38725;SDS011;24474;48.906;8.808;2022-10-17T00:12:30;3.60;;;1.50;;
38725;SDS011;24474;48.906;8.808;2022-10-17T00:14:56;4.22;;;1.58;;
38725;SDS011;24474;48.906;8.808;2022-10-17T00:17:22;5.40;;;1.65;;
38725;SDS011;24474;48.906;8.808;2022-10-17T00:19:47;2.35;;;1.52;;
38725;SDS011;24474;48.906;8.808;2022-10-17T00:22:13;3.28;;;1.70;;
38725;SDS011;24474;48.906;8.808;2022-10-17T00:24:39;6.40;;;1.60;;
38725;SDS011;24474;48.906;8.808;2022-10-17T00:27:05;7.40;;;1.50;;
38725;SDS011;24474;48.906;8.808;2022-10-17T00:29:30;2.58;;;1.50;;
38725;SDS011;24474;48.906;8.808;2022-10-17T00:31:57;5.97;;;1.60;;
38725;SDS011;24474;48.906;8.808;2022-10-17T00:34:23;4.38;;;1.63;;
38725;SDS011;24474;48.906;8.808;2022-10-17T00:36:49;4.75;;;1.70;;
38725;SDS011;24474;48.906;8.808;2022-10-17T00:39:15;5.88;;;1.60;;
38725;SDS011;24474;48.906;8.808;2022-10-17T00:41:41;4.22;;;1.80;;
38725;SDS011;24474;48.906;8.808;2022-10-17T00:44:59;4.80;;;1.70;;
38725;SDS011;24474;48.906;8.808;2022-10-17T00:47:02;4.65;;;1.50;;
38725;SDS011;24474;48.906;8.808;2022-10-17T00:49:30;5.22;;;1.50;;
38725;SDS011;24474;48.906;8.808;2022-10-17T00:52:02;4.68;;;1.83;;
38725;SDS011;24474;48.906;8.808;2022-10-17T00:54:55;11.57;;;2.10;;
38725;SDS011;24474;48.906;8.808;2022-10-17T00:57:20;4.53;;;1.77;;
38725;SDS011;24474;48.906;8.808;2022-10-17T00:59:47;2.20;;;1.50;;
38725;SDS011;24474;48.906;8.808;2022-10-17T01:02:17;3.95;;;1.80;;
38725;SDS011;24474;48.906;8.808;2022-10-17T01:04:45;5.32;;;1.85;;
38725;SDS011;24474;48.906;8.808;2022-10-17T01:07:12;7.10;;;1.80;;
38725;SDS011;24474;48.906;8.808;2022-10-17T01:09:39;6.05;;;2.00;;
38725;SDS011;24474;48.906;8.808;2022-10-17T01:12:09;4.75;;;1.80;;
38725;SDS011;24474;48.906;8.808;2022-10-17T01:20:10;4.22;;;1.70;;
38725;SDS011;24474;48.906;8.808;2022-10-17T01:28:42;4.72;;;1.88;;
38725;SDS011;24474;48.906;8.808;2022-10-17T01:34:09;6.45;;;1.75;;
38725;SDS011;24474;48.906;8.808;2022-10-17T01:36:46;2.03;;;1.70;;
38725;SDS011;24474;48.906;8.808;2022-10-17T01:45:15;4.25;;;1.95;;
38725;SDS011;24474;48.906;8.808;2022-10-17T01:47:47;5.63;;;2.00;;
38725;SDS011;24474;48.906;8.808;2022-10-17T01:50:17;7.00;;;2.15;;
38725;SDS011;24474;48.906;8.808;2022-10-17T01:52:52;5.28;;;1.80;;
38725;SDS011;24474;48.906;8.808;2022-10-17T01:55:32;7.18;;;1.70;;
38725;SDS011;24474;48.906;8.808;2022-10-17T01:58:11;4.65;;;1.80;;
38725;SDS011;24474;48.906;8.808;2022-10-17T02:00:41;3.35;;;1.60;;
38725;SDS011;24474;48.906;8.808;2022-10-17T02:03:10;2.65;;;1.90;;
38725;SDS011;24474;48.906;8.808;2022-10-17T02:05:40;4.82;;;1.90;;
38725;SDS011;24474;48.906;8.808;2022-10-17T02:08:08;3.83;;;2.00;;
38725;SDS011;24474;48.906;8.808;2022-10-17T02:13:12;6.50;;;1.90;;
38725;SDS011;24474;48.906;8.808;2022-10-17T02:18:45;5.70;;;2.10;;
38725;SDS011;24474;48.906;8.808;2022-10-17T02:21:29;5.10;;;2.05;;
38725;SDS011;24474;48.906;8.808;2022-10-17T02:26:59;4.63;;;1.90;;
38725;SDS011;24474;48.906;8.808;2022-10-17T02:29:48;5.45;;;2.10;;
38725;SDS011;24474;48.906;8.808;2022-10-17T02:32:33;3.92;;;1.88;;
38725;SDS011;24474;48.906;8.808;2022-10-17T02:35:06;4.68;;;2.15;;
38725;SDS011;24474;48.906;8.808;2022-10-17T02:37:34;4.75;;;2.15;;
38725;SDS011;24474;48.906;8.808;2022-10-17T02:40:01;8.85;;;2.10;;
38725;SDS011;24474;48.906;8.808;2022-10-17T02:42:29;4.60;;;1.80;;
38725;SDS011;24474;48.906;8.808;2022-10-17T02:44:57;3.42;;;1.85;;
38725;SDS011;24474;48.906;8.808;2022-10-17T02:47:34;7.63;;;2.20;;
38725;SDS011;24474;48.906;8.808;2022-10-17T02:50:05;4.90;;;2.10;;
38725;SDS011;24474;48.906;8.808;2022-10-17T02:55:22;3.28;;;2.00;;
38725;SDS011;24474;48.906;8.808;2022-10-17T02:58:07;4.70;;;2.03;;
38725;SDS011;24474;48.906;8.808;2022-10-17T03:00:42;4.60;;;1.95;;
38725;SDS011;24474;48.906;8.808;2022-10-17T03:03:19;4.82;;;1.90;;
38725;SDS011;24474;48.906;8.808;2022-10-17T03:05:47;3.72;;;2.17;;
38725;SDS011;24474;48.906;8.808;2022-10-17T03:08:13;3.67;;;2.08;;
38725;SDS011;24474;48.906;8.808;2022-10-17T03:10:38;3.03;;;1.83;;
38725;SDS011;24474;48.906;8.808;2022-10-17T03:13:04;6.15;;;2.40;;
38725;SDS011;24474;48.906;8.808;2022-10-17T03:15:29;6.43;;;2.08;;
38725;SDS011;24474;48.906;8.808;2022-10-17T03:17:55;4.63;;;2.00;;
38725;SDS011;24474;48.906;8.808;2022-10-17T03:20:20;5.30;;;2.08;;
38725;SDS011;24474;48.906;8.808;2022-10-17T03:22:46;7.70;;;2.13;;
38725;SDS011;24474;48.906;8.808;2022-10-17T03:25:12;4.78;;;1.90;;
38725;SDS011;24474;48.906;8.808;2022-10-17T03:27:37;6.95;;;2.47;;
38725;SDS011;24474;48.906;8.808;2022-10-17T03:30:03;4.15;;;2.10;;
38725;SDS011;24474;48.906;8.808;2022-10-17T03:32:31;6.90;;;2.20;;
38725;SDS011;24474;48.906;8.808;2022-10-17T03:34:57;3.60;;;2.22;;
38725;SDS011;24474;48.906;8.808;2022-10-17T03:37:23;4.18;;;2.13;;
38725;SDS011;24474;48.906;8.808;2022-10-17T03:39:49;4.65;;;2.05;;
38725;SDS011;24474;48.906;8.808;2022-10-17T03:42:14;4.47;;;1.98;;
38725;SDS011;24474;48.906;8.808;2022-10-17T03:44:40;4.70;;;2.05;;
38725;SDS011;24474;48.906;8.808;2022-10-17T03:47:06;5.35;;;2.45;;
38725;SDS011;24474;48.906;8.808;2022-10-17T03:49:31;5.80;;;2.03;;
38725;SDS011;24474;48.906;8.808;2022-10-17T03:51:57;3.92;;;2.10;;
38725;SDS011;24474;48.906;8.808;2022-10-17T03:54:22;4.38;;;2.00;;
38725;SDS011;24474;48.906;8.808;2022-10-17T03:56:48;3.08;;;1.70;;
38725;SDS011;24474;48.906;8.808;2022-10-17T03:59:14;5.35;;;2.40;;
38725;SDS011;24474;48.906;8.808;2022-10-17T04:01:40;3.50;;;1.92;;
38725;SDS011;24474;48.906;8.808;2022-10-17T04:04:07;3.83;;;2.30;;
38725;SDS011;24474;48.906;8.808;2022-10-17T04:06:33;4.55;;;2.35;;
38725;SDS011;24474;48.906;8.808;2022-10-17T04:08:59;3.40;;;2.10;;
38725;SDS011;24474;48.906;8.808;2022-10-17T04:11:25;2.33;;;1.83;;
38725;SDS011;24474;48.906;8.808;2022-10-17T04:13:54;3.88;;;1.92;;
38725;SDS011;24474;48.906;8.808;2022-10-17T04:16:20;4.47;;;2.00;;
38725;SDS011;24474;48.906;8.808;2022-10-17T04:18:50;5.18;;;2.20;;
38725;SDS011;24474;48.906;8.808;2022-10-17T04:21:18;3.20;;;1.90;;
38725;SDS011;24474;48.906;8.808;2022-10-17T04:23:44;6.35;;;2.28;;
38725;SDS011;24474;48.906;8.808;2022-10-17T04:26:09;4.68;;;2.30;;
38725;SDS011;24474;48.906;8.808;2022-10-17T04:28:35;4.80;;;2.25;;
38725;SDS011;24474;48.906;8.808;2022-10-17T04:31:05;6.55;;;2.30;;
38725;SDS011;24474;48.906;8.808;2022-10-17T04:33:33;6.47;;;2.13;;
38725;SDS011;24474;48.906;8.808;2022-10-17T04:36:12;6.95;;;2.20;;
38725;SDS011;24474;48.906;8.808;2022-10-17T04:38:39;4.35;;;2.33;;
38725;SDS011;24474;48.906;8.808;2022-10-17T04:41:06;5.10;;;2.10;;
38725;SDS011;24474;48.906;8.808;2022-10-17T04:43:35;5.55;;;2.22;;
38725;SDS011;24474;48.906;8.808;2022-10-17T04:46:03;6.00;;;2.10;;
38725;SDS011;24474;48.906;8.808;2022-10-17T04:48:34;5.25;;;2.30;;
38725;SDS011;24474;48.906;8.808;2022-10-17T04:51:00;7.45;;;2.20;;
38725;SDS011;24474;48.906;8.808;2022-10-17T04:53:32;4.50;;;2.30;;
38725;SDS011;24474;48.906;8.808;2022-10-17T04:55:59;4.95;;;2.15;;
38725;SDS011;24474;48.906;8.808;2022-10-17T04:58:25;4.95;;;2.13;;
38725;SDS011;24474;48.906;8.808;2022-10-17T05:00:52;10.18;;;2.30;;
38725;SDS011;24474;48.906;8.808;2022-10-17T05:03:17;6.53;;;2.10;;
38725;SDS011;24474;48.906;8.808;2022-10-17T05:05:43;2.40;;;1.90;;
38725;SDS011;24474;48.906;8.808;2022-10-17T05:08:09;6.05;;;2.20;;
38725;SDS011;24474;48.906;8.808;2022-10-17T05:10:36;4.20;;;2.10;;
38725;SDS011;24474;48.906;8.808;2022-10-17T05:13:04;9.73;;;2.08;;
38725;SDS011;24474;48.906;8.808;2022-10-17T05:15:30;5.22;;;2.30;;
38725;SDS011;24474;48.906;8.808;2022-10-17T05:17:56;4.93;;;2.35;;
38725;SDS011;24474;48.906;8.808;2022-10-17T05:20:23;6.35;;;2.20;;
38725;SDS011;24474;48.906;8.808;2022-10-17T05:22:52;4.18;;;1.85;;
38725;SDS011;24474;48.906;8.808;2022-10-17T05:25:18;3.70;;;2.20;;
38725;SDS011;24474;48.906;8.808;2022-10-17T05:27:44;4.90;;;2.00;;
38725;SDS011;24474;48.906;8.808;2022-10-17T05:30:10;6.57;;;2.15;;
38725;SDS011;24474;48.906;8.808;2022-10-17T05:32:36;5.47;;;2.10;;
38725;SDS011;24474;48.906;8.808;2022-10-17T05:35:02;3.22;;;1.90;;
38725;SDS011;24474;48.906;8.808;2022-10-17T05:37:29;6.65;;;2.42;;
38725;SDS011;24474;48.906;8.808;2022-10-17T05:39:55;3.08;;;1.98;;
38725;SDS011;24474;48.906;8.808;2022-10-17T05:42:21;4.32;;;2.10;;
38725;SDS011;24474;48.906;8.808;2022-10-17T05:44:47;6.13;;;2.35;;
38725;SDS011;24474;48.906;8.808;2022-10-17T05:47:13;5.47;;;2.42;;
38725;SDS011;24474;48.906;8.808;2022-10-17T05:49:39;2.92;;;2.08;;
38725;SDS011;24474;48.906;8.808;2022-10-17T05:52:04;4.10;;;2.22;;
38725;SDS011;24474;48.906;8.808;2022-10-17T05:54:31;3.90;;;2.20;;
38725;SDS011;24474;48.906;8.808;2022-10-17T05:56:56;6.10;;;2.28;;
38725;SDS011;24474;48.906;8.808;2022-10-17T05:59:23;6.82;;;2.20;;
38725;SDS011;24474;48.906;8.808;2022-10-17T06:01:50;9.35;;;2.45;;
38725;SDS011;24474;48.906;8.808;2022-10-17T06:04:15;7.70;;;3.03;;
38725;SDS011;24474;48.906;8.808;2022-10-17T06:06:41;6.43;;;2.67;;
38725;SDS011;24474;48.906;8.808;2022-10-17T06:09:07;5.25;;;3.17;;
38725;SDS011;24474;48.906;8.808;2022-10-17T06:11:33;7.25;;;2.95;;
38725;SDS011;24474;48.906;8.808;2022-10-17T06:14:00;5.45;;;2.55;;
38725;SDS011;24474;48.906;8.808;2022-10-17T06:16:26;5.20;;;2.50;;
38725;SDS011;24474;48.906;8.808;2022-10-17T06:18:51;4.35;;;2.35;;
38725;SDS011;24474;48.906;8.808;2022-10-17T06:21:24;6.78;;;2.30;;
38725;SDS011;24474;48.906;8.808;2022-10-17T06:23:51;5.57;;;2.03;;
38725;SDS011;24474;48.906;8.808;2022-10-17T06:26:17;5.13;;;2.40;;
38725;SDS011;24474;48.906;8.808;2022-10-17T06:28:43;5.20;;;2.42;;
38725;SDS011;24474;48.906;8.808;2022-10-17T06:31:10;5.10;;;2.45;;
38725;SDS011;24474;48.906;8.808;2022-10-17T06:33:37;5.78;;;2.70;;
38725;SDS011;24474;48.906;8.808;2022-10-17T06:36:03;5.53;;;2.40;;
38725;SDS011;24474;48.906;8.808;2022-10-17T06:38:30;9.63;;;3.53;;
38725;SDS011;24474;48.906;8.808;2022-10-17T06:41:17;4.13;;;2.50;;
38725;SDS011;24474;48.906;8.808;2022-10-17T06:43:44;5.90;;;2.28;;
38725;SDS011;24474;48.906;8.808;2022-10-17T06:46:11;5.53;;;2.20;;
38725;SDS011;24474;48.906;8.808;2022-10-17T06:48:38;4.82;;;1.95;;
38725;SDS011;24474;48.906;8.808;2022-10-17T06:51:04;8.90;;;2.40;;
38725;SDS011;24474;48.906;8.808;2022-10-17T06:53:31;11.55;;;2.90;;
38725;SDS011;24474;48.906;8.808;2022-10-17T06:55:59;13.63;;;4.22;;
38725;SDS011;24474;48.906;8.808;2022-10-17T06:58:27;16.50;;;4.00;;
38725;SDS011;24474;48.906;8.808;2022-10-17T07:00:58;11.57;;;4.45;;
38725;SDS011;24474;48.906;8.808;2022-10-17T07:03:28;15.20;;;4.40;;
38725;SDS011;24474;48.906;8.808;2022-10-17T07:05:54;11.57;;;3.80;;
38725;SDS011;24474;48.906;8.808;2022-10-17T07:08:21;10.23;;;3.30;;
38725;SDS011;24474;48.906;8.808;2022-10-17T07:10:47;9.88;;;3.28;;
38725;SDS011;24474;48.906;8.808;2022-10-17T07:13:13;8.88;;;3.80;;
38725;SDS011;24474;48.906;8.808;2022-10-17T07:15:39;8.68;;;3.55;;
38725;SDS011;24474;48.906;8.808;2022-10-17T07:18:05;8.15;;;3.38;;
38725;SDS011;24474;48.906;8.808;2022-10-17T07:20:31;9.25;;;3.30;;
38725;SDS011;24474;48.906;8.808;2022-10-17T07:22:57;6.93;;;2.88;;
38725;SDS011;24474;48.906;8.808;2022-10-17T07:25:23;5.18;;;2.80;;
38725;SDS011;24474;48.906;8.808;2022-10-17T07:27:49;6.22;;;3.28;;
38725;SDS011;24474;48.906;8.808;2022-10-17T07:30:16;10.85;;;3.08;;
38725;SDS011;24474;48.906;8.808;2022-10-17T07:32:42;6.10;;;2.80;;
38725;SDS011;24474;48.906;8.808;2022-10-17T07:35:08;8.55;;;2.67;;
38725;SDS011;24474;48.906;8.808;2022-10-17T07:37:34;5.80;;;2.47;;
38725;SDS011;24474;48.906;8.808;2022-10-17T07:40:01;4.60;;;2.50;;
38725;SDS011;24474;48.906;8.808;2022-10-17T07:42:27;5.70;;;2.15;;
38725;SDS011;24474;48.906;8.808;2022-10-17T07:44:53;5.50;;;2.10;;
38725;SDS011;24474;48.906;8.808;2022-10-17T07:47:19;5.03;;;2.47;;
38725;SDS011;24474;48.906;8.808;2022-10-17T07:49:45;6.72;;;2.88;;
38725;SDS011;24474;48.906;8.808;2022-10-17T07:52:11;4.45;;;2.40;;
38725;SDS011;24474;48.906;8.808;2022-10-17T07:54:38;5.22;;;2.28;;
38725;SDS011;24474;48.906;8.808;2022-10-17T07:57:04;5.80;;;2.47;;
38725;SDS011;24474;48.906;8.808;2022-10-17T07:59:31;6.20;;;2.53;;
38725;SDS011;24474;48.906;8.808;2022-10-17T08:01:57;5.32;;;2.28;;
38725;SDS011;24474;48.906;8.808;2022-10-17T08:04:24;5.65;;;2.28;;
38725;SDS011;24474;48.906;8.808;2022-10-17T08:06:50;6.32;;;2.28;;
38725;SDS011;24474;48.906;8.808;2022-10-17T08:09:16;4.40;;;2.30;;
38725;SDS011;24474;48.906;8.808;2022-10-17T08:11:42;6.18;;;2.10;;
38725;SDS011;24474;48.906;8.808;2022-10-17T08:14:09;4.70;;;2.30;;
38725;SDS011;24474;48.906;8.808;2022-10-17T08:16:35;5.22;;;2.15;;
38725;SDS011;24474;48.906;8.808;2022-10-17T08:19:01;3.72;;;2.10;;
38725;SDS011;24474;48.906;8.808;2022-10-17T08:21:27;5.65;;;1.83;;
38725;SDS011;24474;48.906;8.808;2022-10-17T08:23:54;6.45;;;2.38;;
38725;SDS011;24474;48.906;8.808;2022-10-17T08:26:19;3.03;;;2.00;;
38725;SDS011;24474;48.906;8.808;2022-10-17T08:28:45;3.65;;;1.90;;
38725;SDS011;24474;48.906;8.808;2022-10-17T08:31:13;4.40;;;2.03;;
38725;SDS011;24474;48.906;8.808;2022-10-17T08:33:42;5.38;;;2.15;;
38725;SDS011;24474;48.906;8.808;2022-10-17T08:36:08;5.05;;;2.38;;
38725;SDS011;24474;48.906;8.808;2022-10-17T08:38:34;5.88;;;2.58;;
38725;SDS011;24474;48.906;8.808;2022-10-17T08:41:02;4.63;;;2.13;;
38725;SDS011;24474;48.906;8.808;2022-10-17T08:43:37;3.22;;;2.08;;
38725;SDS011;24474;48.906;8.808;2022-10-17T08:46:09;3.13;;;1.80;;
38725;SDS011;24474;48.906;8.808;2022-10-17T08:48:37;4.47;;;2.40;;
38725;SDS011;24474;48.906;8.808;2022-10-17T08:51:11;5.25;;;2.08;;
38725;SDS011;24474;48.906;8.808;2022-10-17T08:56:25;5.30;;;1.70;;
38725;SDS011;24474;48.906;8.808;2022-10-17T08:58:57;3.53;;;2.05;;
38725;SDS011;24474;48.906;8.808;2022-10-17T09:15:18;3.00;;;1.80;;
38725;SDS011;24474;48.906;8.808;2022-10-17T09:17:58;3.67;;;1.70;;
38725;SDS011;24474;48.906;8.808;2022-10-17T09:20:42;2.80;;;1.87;;
38725;SDS011;24474;48.906;8.808;2022-10-17T09:23:23;4.50;;;1.70;;
38725;SDS011;24474;48.906;8.808;2022-10-17T09:25:53;4.03;;;1.67;;
38725;SDS011;24474;48.906;8.808;2022-10-17T09:30:52;5.50;;;1.60;;
38725;SDS011;24474;48.906;8.808;2022-10-17T09:33:24;5.03;;;1.42;;
38725;SDS011;24474;48.906;8.808;2022-10-17T09:35:52;4.25;;;1.50;;
38725;SDS011;24474;48.906;8.808;2022-10-17T09:38:21;6.35;;;1.58;;
38725;SDS011;24474;48.906;8.808;2022-10-17T09:40:49;3.28;;;1.52;;
38725;SDS011;24474;48.906;8.808;2022-10-17T09:43:20;3.58;;;2.00;;
38725;SDS011;24474;48.906;8.808;2022-10-17T09:48:39;5.85;;;1.63;;
38725;SDS011;24474;48.906;8.808;2022-10-17T09:51:11;3.38;;;1.42;;
38725;SDS011;24474;48.906;8.808;2022-10-17T09:53:56;2.58;;;1.40;;
38725;SDS011;24474;48.906;8.808;2022-10-17T09:56:25;3.10;;;1.77;;
38725;SDS011;24474;48.906;8.808;2022-10-17T09:58:57;7.53;;;1.63;;
38725;SDS011;24474;48.906;8.808;2022-10-17T10:01:24;3.72;;;1.40;;
38725;SDS011;24474;48.906;8.808;2022-10-17T10:06:40;8.57;;;2.33;;
38725;SDS011;24474;48.906;8.808;2022-10-17T10:09:26;7.00;;;2.53;;
38725;SDS011;24474;48.906;8.808;2022-10-17T10:11:57;4.15;;;1.90;;
38725;SDS011;24474;48.906;8.808;2022-10-17T10:16:59;6.47;;;2.30;;
38725;SDS011;24474;48.906;8.808;2022-10-17T10:19:27;6.95;;;2.38;;
38725;SDS011;24474;48.906;8.808;2022-10-17T10:21:56;10.23;;;2.05;;
38725;SDS011;24474;48.906;8.808;2022-10-17T10:24:23;4.63;;;1.70;;
38725;SDS011;24474;48.906;8.808;2022-10-17T10:26:51;4.53;;;1.88;;
38725;SDS011;24474;48.906;8.808;2022-10-17T10:29:37;8.23;;;1.63;;
38725;SDS011;24474;48.906;8.808;2022-10-17T10:32:06;7.82;;;2.42;;
38725;SDS011;24474;48.906;8.808;2022-10-17T10:34:48;6.43;;;1.88;;
38725;SDS011;24474;48.906;8.808;2022-10-17T10:37:18;7.57;;;2.10;;
38725;SDS011;24474;48.906;8.808;2022-10-17T10:39:47;6.15;;;2.65;;
38725;SDS011;24474;48.906;8.808;2022-10-17T10:42:24;7.45;;;2.40;;
38725;SDS011;24474;48.906;8.808;2022-10-17T10:45:01;6.00;;;1.92;;
38725;SDS011;24474;48.906;8.808;2022-10-17T10:47:36;10.80;;;2.50;;
38725;SDS011;24474;48.906;8.808;2022-10-17T10:50:07;9.60;;;2.95;;
38725;SDS011;24474;48.906;8.808;2022-10-17T10:52:54;9.27;;;2.72;;
38725;SDS011;24474;48.906;8.808;2022-10-17T10:55:32;8.68;;;3.33;;
38725;SDS011;24474;48.906;8.808;2022-10-17T10:58:29;11.10;;;2.50;;
38725;SDS011;24474;48.906;8.808;2022-10-17T11:01:26;7.70;;;2.40;;
38725;SDS011;24474;48.906;8.808;2022-10-17T11:07:03;9.70;;;2.40;;
38725;SDS011;24474;48.906;8.808;2022-10-17T11:15:35;13.32;;;4.53;;
38725;SDS011;24474;48.906;8.808;2022-10-17T11:18:10;7.53;;;2.70;;
38725;SDS011;24474;48.906;8.808;2022-10-17T11:21:04;8.40;;;3.13;;
38725;SDS011;24474;48.906;8.808;2022-10-17T11:26:15;7.43;;;2.35;;
38725;SDS011;24474;48.906;8.808;2022-10-17T11:28:57;8.00;;;2.40;;
38725;SDS011;24474;48.906;8.808;2022-10-17T11:31:30;4.40;;;2.03;;
38725;SDS011;24474;48.906;8.808;2022-10-17T11:36:44;5.43;;;2.00;;
38725;SDS011;24474;48.906;8.808;2022-10-17T11:39:15;8.10;;;1.83;;
38725;SDS011;24474;48.906;8.808;2022-10-17T11:41:44;6.53;;;2.00;;
38725;SDS011;24474;48.906;8.808;2022-10-17T11:46:50;2.65;;;1.67;;
38725;SDS011;24474;48.906;8.808;2022-10-17T11:49:42;6.07;;;1.85;;
38725;SDS011;24474;48.906;8.808;2022-10-17T11:55:18;5.18;;;2.25;;
38725;SDS011;24474;48.906;8.808;2022-10-17T11:57:49;4.47;;;1.95;;
38725;SDS011;24474;48.906;8.808;2022-10-17T12:00:42;5.03;;;1.90;;
38725;SDS011;24474;48.906;8.808;2022-10-17T12:11:48;8.02;;;1.90;;
38725;SDS011;24474;48.906;8.808;2022-10-17T12:14:40;3.15;;;1.65;;
38725;SDS011;24474;48.906;8.808;2022-10-17T12:17:04;5.53;;;2.00;;
38725;SDS011;24474;48.906;8.808;2022-10-17T12:19:46;4.03;;;1.63;;
38725;SDS011;24474;48.906;8.808;2022-10-17T12:22:21;4.13;;;1.77;;
38725;SDS011;24474;48.906;8.808;2022-10-17T12:24:59;7.00;;;1.50;;
38725;SDS011;24474;48.906;8.808;2022-10-17T12:27:42;5.95;;;1.20;;
38725;SDS011;24474;48.906;8.808;2022-10-17T12:30:14;6.15;;;1.55;;
38725;SDS011;24474;48.906;8.808;2022-10-17T12:32:52;7.63;;;1.60;;
38725;SDS011;24474;48.906;8.808;2022-10-17T12:35:19;6.25;;;1.52;;
38725;SDS011;24474;48.906;8.808;2022-10-17T12:42:59;7.50;;;1.52;;
38725;SDS011;24474;48.906;8.808;2022-10-17T12:45:58;7.05;;;1.40;;
38725;SDS011;24474;48.906;8.808;2022-10-17T12:58:47;2.83;;;1.45;;
38725;SDS011;24474;48.906;8.808;2022-10-17T13:01:26;3.72;;;1.48;;
38725;SDS011;24474;48.906;8.808;2022-10-17T13:03:54;7.45;;;2.20;;
38725;SDS011;24474;48.906;8.808;2022-10-17T13:06:26;3.85;;;1.65;;
38725;SDS011;24474;48.906;8.808;2022-10-17T13:08:58;3.67;;;1.40;;
38725;SDS011;24474;48.906;8.808;2022-10-17T13:11:26;4.53;;;1.40;;
38725;SDS011;24474;48.906;8.808;2022-10-17T13:13:56;3.88;;;1.50;;
38725;SDS011;24474;48.906;8.808;2022-10-17T13:16:28;4.03;;;1.40;;
38725;SDS011;24474;48.906;8.808;2022-10-17T13:19:12;5.15;;;1.48;;
38725;SDS011;24474;48.906;8.808;2022-10-17T13:21:52;6.18;;;1.83;;
38725;SDS011;24474;48.906;8.808;2022-10-17T13:24:28;5.90;;;1.70;;
38725;SDS011;24474;48.906;8.808;2022-10-17T13:26:57;5.55;;;2.10;;
38725;SDS011;24474;48.906;8.808;2022-10-17T13:29:23;7.85;;;2.05;;
38725;SDS011;24474;48.906;8.808;2022-10-17T13:31:51;5.20;;;1.42;;
38725;SDS011;24474;48.906;8.808;2022-10-17T13:34:19;4.97;;;1.67;;
38725;SDS011;24474;48.906;8.808;2022-10-17T13:36:50;9.32;;;1.70;;
38725;SDS011;24474;48.906;8.808;2022-10-17T13:39:19;5.97;;;1.77;;
38725;SDS011;24474;48.906;8.808;2022-10-17T13:41:48;4.82;;;1.73;;
38725;SDS011;24474;48.906;8.808;2022-10-17T13:44:22;4.35;;;1.40;;
38725;SDS011;24474;48.906;8.808;2022-10-17T13:46:49;8.73;;;1.80;;
38725;SDS011;24474;48.906;8.808;2022-10-17T13:49:24;3.35;;;1.40;;
38725;SDS011;24474;48.906;8.808;2022-10-17T13:52:03;6.20;;;1.60;;
38725;SDS011;24474;48.906;8.808;2022-10-17T13:54:33;4.53;;;1.50;;
38725;SDS011;24474;48.906;8.808;2022-10-17T13:57:04;4.20;;;1.33;;
38725;SDS011;24474;48.906;8.808;2022-10-17T13:59:41;2.58;;;1.40;;
38725;SDS011;24474;48.906;8.808;2022-10-17T14:02:12;4.53;;;1.65;;
38725;SDS011;24474;48.906;8.808;2022-10-17T14:04:44;4.95;;;1.50;;
38725;SDS011;24474;48.906;8.808;2022-10-17T14:07:15;7.15;;;1.70;;
38725;SDS011;24474;48.906;8.808;2022-10-17T14:10:05;6.32;;;1.40;;
38725;SDS011;24474;48.906;8.808;2022-10-17T14:12:44;2.22;;;1.30;;
38725;SDS011;24474;48.906;8.808;2022-10-17T14:15:12;7.38;;;1.48;;
38725;SDS011;24474;48.906;8.808;2022-10-17T14:17:39;2.70;;;1.40;;
38725;SDS011;24474;48.906;8.808;2022-10-17T14:20:15;4.20;;;1.42;;
38725;SDS011;24474;48.906;8.808;2022-10-17T14:22:45;5.97;;;1.40;;
38725;SDS011;24474;48.906;8.808;2022-10-17T14:28:11;4.03;;;1.45;;
38725;SDS011;24474;48.906;8.808;2022-10-17T14:30:42;6.07;;;1.63;;
38725;SDS011;24474;48.906;8.808;2022-10-17T14:33:14;2.63;;;1.27;;
38725;SDS011;24474;48.906;8.808;2022-10-17T14:35:48;3.90;;;1.30;;
38725;SDS011;24474;48.906;8.808;2022-10-17T14:38:18;6.05;;;1.67;;
38725;SDS011;24474;48.906;8.808;2022-10-17T14:40:51;3.58;;;1.42;;
38725;SDS011;24474;48.906;8.808;2022-10-17T14:43:21;3.90;;;1.52;;
38725;SDS011;24474;48.906;8.808;2022-10-17T14:45:49;11.32;;;1.92;;
38725;SDS011;24474;48.906;8.808;2022-10-17T14:48:19;4.05;;;1.60;;
38725;SDS011;24474;48.906;8.808;2022-10-17T14:53:37;4.65;;;1.67;;
38725;SDS011;24474;48.906;8.808;2022-10-17T14:56:18;6.30;;;1.60;;
38725;SDS011;24474;48.906;8.808;2022-10-17T14:58:49;5.18;;;1.73;;
38725;SDS011;24474;48.906;8.808;2022-10-17T15:01:16;7.60;;;1.95;;
38725;SDS011;24474;48.906;8.808;2022-10-17T15:03:42;2.85;;;1.30;;
38725;SDS011;24474;48.906;8.808;2022-10-17T15:06:22;5.75;;;1.60;;
38725;SDS011;24474;48.906;8.808;2022-10-17T15:08:52;6.38;;;1.52;;
38725;SDS011;24474;48.906;8.808;2022-10-17T15:11:17;5.25;;;1.73;;
38725;SDS011;24474;48.906;8.808;2022-10-17T15:13:43;5.18;;;1.80;;
38725;SDS011;24474;48.906;8.808;2022-10-17T15:16:19;7.10;;;1.60;;
38725;SDS011;24474;48.906;8.808;2022-10-17T15:18:46;5.32;;;1.80;;
38725;SDS011;24474;48.906;8.808;2022-10-17T15:21:13;6.32;;;1.52;;
38725;SDS011;24474;48.906;8.808;2022-10-17T15:23:40;5.82;;;1.70;;
38725;SDS011;24474;48.906;8.808;2022-10-17T15:28:44;4.70;;;1.60;;
38725;SDS011;24474;48.906;8.808;2022-10-17T15:31:12;5.55;;;1.55;;
38725;SDS011;24474;48.906;8.808;2022-10-17T15:33:39;4.53;;;1.50;;
38725;SDS011;24474;48.906;8.808;2022-10-17T15:36:15;4.20;;;1.50;;
38725;SDS011;24474;48.906;8.808;2022-10-17T15:38:55;9.00;;;2.30;;
38725;SDS011;24474;48.906;8.808;2022-10-17T15:41:23;8.30;;;1.98;;
38725;SDS011;24474;48.906;8.808;2022-10-17T15:43:50;6.55;;;1.95;;
38725;SDS011;24474;48.906;8.808;2022-10-17T15:46:18;4.32;;;1.50;;
38725;SDS011;24474;48.906;8.808;2022-10-17T15:48:46;9.88;;;1.52;;
38725;SDS011;24474;48.906;8.808;2022-10-17T15:51:13;4.10;;;1.63;;
38725;SDS011;24474;48.906;8.808;2022-10-17T15:53:39;7.43;;;1.77;;
38725;SDS011;24474;48.906;8.808;2022-10-17T15:56:04;4.32;;;1.60;;
38725;SDS011;24474;48.906;8.808;2022-10-17T15:58:38;4.80;;;1.70;;
38725;SDS011;24474;48.906;8.808;2022-10-17T16:01:04;8.90;;;2.05;;
38725;SDS011;24474;48.906;8.808;2022-10-17T16:03:30;7.75;;;2.20;;
38725;SDS011;24474;48.906;8.808;2022-10-17T16:05:57;8.63;;;2.20;;
38725;SDS011;24474;48.906;8.808;2022-10-17T16:08:23;6.05;;;1.80;;
38725;SDS011;24474;48.906;8.808;2022-10-17T16:10:48;4.13;;;1.75;;
38725;SDS011;24474;48.906;8.808;2022-10-17T16:13:19;5.88;;;2.05;;
38725;SDS011;24474;48.906;8.808;2022-10-17T16:15:46;5.00;;;1.90;;
38725;SDS011;24474;48.906;8.808;2022-10-17T16:18:12;4.47;;;1.80;;
38725;SDS011;24474;48.906;8.808;2022-10-17T16:20:38;8.70;;;1.95;;
38725;SDS011;24474;48.906;8.808;2022-10-17T16:23:04;7.78;;;2.40;;
38725;SDS011;24474;48.906;8.808;2022-10-17T16:25:31;11.13;;;3.97;;
38725;SDS011;24474;48.906;8.808;2022-10-17T16:27:57;11.80;;;5.30;;
38725;SDS011;24474;48.906;8.808;2022-10-17T16:30:24;11.52;;;4.30;;
38725;SDS011;24474;48.906;8.808;2022-10-17T16:32:52;9.00;;;3.47;;
38725;SDS011;24474;48.906;8.808;2022-10-17T16:35:20;11.18;;;2.70;;
38725;SDS011;24474;48.906;8.808;2022-10-17T16:37:48;10.35;;;2.42;;
38725;SDS011;24474;48.906;8.808;2022-10-17T16:40:14;17.33;;;2.50;;
38725;SDS011;24474;48.906;8.808;2022-10-17T16:42:40;17.38;;;2.45;;
38725;SDS011;24474;48.906;8.808;2022-10-17T16:45:06;12.77;;;2.53;;
38725;SDS011;24474;48.906;8.808;2022-10-17T16:47:32;12.98;;;2.60;;
38725;SDS011;24474;48.906;8.808;2022-10-17T16:49:57;4.68;;;2.28;;
38725;SDS011;24474;48.906;8.808;2022-10-17T16:52:23;7.43;;;2.60;;
38725;SDS011;24474;48.906;8.808;2022-10-17T16:54:50;8.30;;;2.40;;